createdAt,value
2017-08-15T00:00:46.768Z,89.62
2017-08-15T00:01:47.804Z,89.33
2017-08-15T00:02:48.442Z,89.72
2017-08-15T00:03:49.076Z,90.00
2017-08-15T00:04:49.711Z,89.81
2017-08-15T00:05:50.356Z,89.72
2017-08-15T00:06:50.985Z,89.72
2017-08-15T00:07:51.620Z,90.10
2017-08-15T00:08:52.253Z,90.20
2017-08-15T00:09:53.100Z,90.00
2017-08-15T00:10:53.727Z,89.81
2017-08-15T00:11:54.368Z,89.23
2017-08-15T00:12:55.006Z,90.20
2017-08-15T00:13:55.644Z,89.33
2017-08-15T00:14:56.280Z,89.72
2017-08-15T00:15:56.918Z,89.62
2017-08-15T00:16:57.549Z,89.81
2017-08-15T00:17:58.185Z,89.72
2017-08-15T00:18:58.975Z,89.14
2017-08-15T00:19:59.608Z,89.14
2017-08-15T00:21:00.243Z,89.23
2017-08-15T00:22:00.881Z,89.53
2017-08-15T00:23:01.522Z,89.72
2017-08-15T00:24:02.158Z,89.72
2017-08-15T00:25:02.792Z,89.81
2017-08-15T00:26:03.425Z,89.72
2017-08-15T00:27:04.260Z,89.53
2017-08-15T00:28:04.896Z,89.62
2017-08-15T00:29:05.530Z,89.53
2017-08-15T00:30:06.172Z,89.81
2017-08-15T00:31:06.802Z,89.81
2017-08-15T00:32:07.438Z,89.72
2017-08-15T00:33:08.082Z,89.43
2017-08-15T00:34:08.719Z,90.00
2017-08-15T00:35:09.553Z,89.81
2017-08-15T00:36:10.248Z,89.33
2017-08-15T00:37:10.880Z,89.43
2017-08-15T00:38:11.522Z,89.43
2017-08-15T00:39:12.151Z,89.72
2017-08-15T00:40:12.786Z,89.72
2017-08-15T00:41:13.421Z,89.14
2017-08-15T00:42:14.056Z,89.14
2017-08-15T00:43:14.891Z,89.23
2017-08-15T00:44:15.527Z,89.33
2017-08-15T00:45:16.161Z,89.14
2017-08-15T00:46:16.798Z,89.72
2017-08-15T00:47:17.433Z,89.43
2017-08-15T00:48:18.068Z,89.14
2017-08-15T00:49:18.702Z,89.53
2017-08-15T00:50:19.341Z,89.43
2017-08-15T00:51:19.980Z,89.53
2017-08-15T00:52:20.767Z,89.53
2017-08-15T00:53:21.401Z,89.81
2017-08-15T00:54:22.038Z,90.20
2017-08-15T00:55:22.677Z,89.81
2017-08-15T00:56:23.309Z,90.20
2017-08-15T00:57:23.948Z,90.10
2017-08-15T00:58:24.580Z,90.30
2017-08-15T00:59:25.219Z,90.10
2017-08-15T01:00:26.255Z,89.81
2017-08-15T01:01:26.894Z,90.20
2017-08-15T01:02:27.528Z,90.58
2017-08-15T01:03:28.161Z,90.16
2017-08-15T01:04:28.798Z,89.96
2017-08-15T01:05:29.431Z,90.54
2017-08-15T01:06:30.069Z,89.86
2017-08-15T01:07:30.704Z,89.72
2017-08-15T01:08:31.544Z,89.48
2017-08-15T01:09:32.178Z,90.20
2017-08-15T01:10:32.811Z,90.16
2017-08-15T01:11:33.445Z,89.67
2017-08-15T01:12:34.080Z,90.34
2017-08-15T01:13:34.719Z,89.96
2017-08-15T01:14:35.357Z,89.58
2017-08-15T01:15:35.988Z,89.81
2017-08-15T01:16:36.823Z,90.73
2017-08-15T01:17:37.464Z,90.64
2017-08-15T01:18:38.103Z,90.64
2017-08-15T01:19:38.787Z,90.48
2017-08-15T01:20:39.428Z,89.67
2017-08-15T01:21:40.068Z,89.58
2017-08-15T01:22:40.699Z,89.67
2017-08-15T01:23:41.332Z,90.16
2017-08-15T01:24:42.123Z,89.62
2017-08-15T01:25:42.762Z,89.67
2017-08-15T01:26:43.393Z,89.96
2017-08-15T01:27:44.040Z,90.44
2017-08-15T01:28:44.673Z,90.34
2017-08-15T01:29:45.312Z,90.20
2017-08-15T01:30:45.943Z,90.73
2017-08-15T01:31:46.580Z,90.54
2017-08-15T01:32:47.212Z,89.86
2017-08-15T01:33:48.050Z,90.16
2017-08-15T01:34:48.684Z,89.96
2017-08-15T01:35:49.325Z,90.20
2017-08-15T01:36:49.959Z,90.16
2017-08-15T01:37:50.600Z,90.16
2017-08-15T01:38:51.244Z,90.20
2017-08-15T01:39:51.883Z,89.81
2017-08-15T01:40:52.516Z,89.77
2017-08-15T01:41:53.396Z,89.81
2017-08-15T01:42:54.037Z,90.30
2017-08-15T01:43:54.668Z,89.91
2017-08-15T01:44:55.302Z,89.81
2017-08-15T01:45:55.939Z,89.72
2017-08-15T01:46:56.573Z,89.96
2017-08-15T01:47:57.206Z,89.77
2017-08-15T01:48:57.848Z,90.16
2017-08-15T01:49:58.681Z,89.96
2017-08-15T01:50:59.318Z,90.20
2017-08-15T01:51:59.955Z,89.72
2017-08-15T01:53:00.596Z,90.25
2017-08-15T01:54:01.226Z,90.00
2017-08-15T01:55:01.861Z,90.00
2017-08-15T01:56:02.499Z,90.34
2017-08-15T01:57:03.140Z,89.91
2017-08-15T01:58:03.927Z,90.34
2017-08-15T01:59:04.560Z,90.16
2017-08-15T02:00:05.193Z,89.96
2017-08-15T02:01:05.835Z,90.25
2017-08-15T02:02:06.466Z,90.16
2017-08-15T02:03:07.114Z,90.16
2017-08-15T02:04:07.752Z,89.96
2017-08-15T02:05:08.387Z,89.96
2017-08-15T02:06:09.023Z,89.67
2017-08-15T02:07:10.208Z,90.06
2017-08-15T02:08:10.848Z,90.25
2017-08-15T02:09:11.484Z,89.96
2017-08-15T02:10:12.116Z,89.86
2017-08-15T02:11:12.757Z,90.16
2017-08-15T02:12:13.391Z,90.16
2017-08-15T02:13:14.024Z,90.16
2017-08-15T02:14:14.657Z,90.06
2017-08-15T02:15:15.495Z,90.16
2017-08-15T02:16:16.136Z,90.06
2017-08-15T02:17:16.773Z,89.96
2017-08-15T02:18:17.411Z,90.54
2017-08-15T02:19:18.040Z,90.54
2017-08-15T02:20:18.675Z,90.54
2017-08-15T02:21:19.312Z,90.83
2017-08-15T02:22:19.950Z,90.64
2017-08-15T02:23:20.736Z,91.02
2017-08-15T02:24:21.369Z,90.83
2017-08-15T02:25:22.009Z,91.02
2017-08-15T02:26:22.649Z,90.54
2017-08-15T02:27:23.278Z,90.73
2017-08-15T02:28:23.910Z,90.54
2017-08-15T02:29:24.550Z,90.64
2017-08-15T02:30:25.188Z,89.96
2017-08-15T02:31:26.020Z,90.16
2017-08-15T02:32:26.666Z,90.25
2017-08-15T02:33:27.300Z,90.25
2017-08-15T02:34:27.935Z,90.34
2017-08-15T02:35:28.569Z,89.58
2017-08-15T02:36:29.202Z,90.34
2017-08-15T02:37:29.837Z,89.96
2017-08-15T02:38:30.475Z,90.25
2017-08-15T02:39:31.258Z,90.83
2017-08-15T02:40:31.894Z,90.16
2017-08-15T02:41:32.528Z,90.92
2017-08-15T02:42:33.165Z,90.16
2017-08-15T02:43:33.810Z,90.16
2017-08-15T02:44:34.452Z,90.16
2017-08-15T02:45:35.081Z,90.73
2017-08-15T02:46:35.720Z,90.64
2017-08-15T02:47:36.357Z,90.06
2017-08-15T02:48:37.246Z,90.16
2017-08-15T02:49:37.877Z,90.16
2017-08-15T02:50:38.512Z,90.34
2017-08-15T02:51:39.149Z,90.06
2017-08-15T02:52:39.783Z,90.64
2017-08-15T02:53:40.416Z,90.73
2017-08-15T02:54:41.050Z,90.64
2017-08-15T02:55:41.685Z,90.16
2017-08-15T02:56:42.526Z,90.92
2017-08-15T02:57:43.164Z,89.77
2017-08-15T02:58:43.798Z,89.96
2017-08-15T02:59:44.433Z,90.16
2017-08-15T03:00:45.073Z,89.96
2017-08-15T03:01:45.706Z,89.67
2017-08-15T03:02:46.348Z,89.86
2017-08-15T03:03:46.978Z,89.96
2017-08-15T03:04:47.764Z,90.06
2017-08-15T03:05:48.397Z,90.34
2017-08-15T03:06:49.030Z,89.96
2017-08-15T03:07:49.670Z,90.16
2017-08-15T03:08:50.313Z,89.77
2017-08-15T03:09:50.947Z,90.16
2017-08-15T03:10:51.583Z,89.86
2017-08-15T03:11:52.217Z,90.06
2017-08-15T03:12:53.059Z,90.06
2017-08-15T03:13:53.692Z,90.73
2017-08-15T03:14:54.333Z,90.25
2017-08-15T03:15:54.972Z,89.96
2017-08-15T03:16:55.602Z,90.16
2017-08-15T03:17:56.244Z,90.16
2017-08-15T03:18:56.881Z,90.25
2017-08-15T03:19:57.514Z,89.77
2017-08-15T03:20:58.147Z,90.16
2017-08-15T03:21:58.987Z,90.64
2017-08-15T03:22:59.620Z,90.34
2017-08-15T03:24:00.261Z,90.16
2017-08-15T03:25:00.894Z,89.96
2017-08-15T03:26:01.535Z,90.83
2017-08-15T03:27:02.168Z,90.44
2017-08-15T03:28:02.801Z,89.77
2017-08-15T03:29:03.437Z,90.16
2017-08-15T03:30:04.224Z,89.77
2017-08-15T03:31:04.868Z,89.77
2017-08-15T03:32:05.501Z,90.06
2017-08-15T03:33:06.136Z,90.34
2017-08-15T03:34:06.770Z,90.06
2017-08-15T03:35:07.407Z,90.06
2017-08-15T03:36:08.044Z,89.86
2017-08-15T03:37:08.680Z,89.67
2017-08-15T03:38:09.613Z,90.16
2017-08-15T03:39:10.252Z,89.96
2017-08-15T03:40:10.884Z,90.83
2017-08-15T03:41:11.526Z,90.34
2017-08-15T03:42:12.162Z,90.73
2017-08-15T03:43:12.799Z,90.64
2017-08-15T03:44:13.430Z,90.54
2017-08-15T03:45:14.063Z,90.83
2017-08-15T03:46:14.851Z,90.64
2017-08-15T03:47:15.494Z,90.73
2017-08-15T03:48:16.122Z,90.64
2017-08-15T03:49:16.755Z,90.25
2017-08-15T03:50:17.392Z,90.64
2017-08-15T03:51:18.026Z,90.83
2017-08-15T03:52:18.663Z,90.73
2017-08-15T03:53:19.302Z,90.73
2017-08-15T03:54:19.935Z,91.69
2017-08-15T03:55:20.766Z,91.12
2017-08-15T03:56:21.408Z,90.73
2017-08-15T03:57:22.042Z,91.12
2017-08-15T03:58:22.678Z,90.92
2017-08-15T03:59:23.321Z,90.73
2017-08-15T04:00:23.955Z,90.73
2017-08-15T04:01:24.599Z,91.21
2017-08-15T04:02:25.232Z,90.54
2017-08-15T04:03:26.062Z,90.83
2017-08-15T04:04:26.695Z,90.83
2017-08-15T04:05:27.341Z,90.54
2017-08-15T04:06:27.967Z,90.83
2017-08-15T04:07:28.602Z,90.73
2017-08-15T04:08:29.242Z,90.73
2017-08-15T04:09:29.884Z,90.83
2017-08-15T04:10:30.517Z,90.64
2017-08-15T04:11:31.301Z,90.83
2017-08-15T04:12:31.940Z,90.44
2017-08-15T04:13:32.580Z,90.73
2017-08-15T04:14:33.162Z,90.64
2017-08-15T04:15:33.797Z,90.25
2017-08-15T04:16:34.438Z,90.54
2017-08-15T04:17:35.070Z,90.64
2017-08-15T04:18:35.710Z,90.83
2017-08-15T04:19:36.551Z,90.44
2017-08-15T04:20:37.251Z,90.44
2017-08-15T04:21:37.879Z,91.12
2017-08-15T04:22:42.223Z,91.41
2017-08-15T04:23:42.859Z,90.64
2017-08-15T04:24:43.490Z,90.64
2017-08-15T04:25:44.131Z,91.31
2017-08-15T04:26:44.760Z,90.73
2017-08-15T04:27:45.596Z,90.83
2017-08-15T04:28:46.236Z,90.92
2017-08-15T04:29:46.873Z,90.73
2017-08-15T04:30:47.504Z,91.69
2017-08-15T04:31:48.145Z,90.73
2017-08-15T04:32:48.778Z,91.69
2017-08-15T04:33:49.411Z,90.83
2017-08-15T04:34:50.045Z,91.12
2017-08-15T04:35:50.683Z,90.73
2017-08-15T04:36:51.521Z,91.60
2017-08-15T04:37:52.156Z,91.50
2017-08-15T04:38:52.793Z,91.41
2017-08-15T04:39:53.429Z,91.69
2017-08-15T04:40:54.064Z,91.41
2017-08-15T04:41:54.698Z,91.31
2017-08-15T04:42:55.341Z,91.21
2017-08-15T04:43:55.974Z,91.02
2017-08-15T04:44:56.756Z,90.92
2017-08-15T04:45:57.394Z,90.44
2017-08-15T04:46:58.031Z,90.44
2017-08-15T04:47:58.665Z,90.64
2017-08-15T04:48:59.297Z,90.64
2017-08-15T04:49:59.931Z,90.64
2017-08-15T04:51:00.572Z,90.92
2017-08-15T04:52:01.204Z,90.54
2017-08-15T04:53:02.092Z,90.54
2017-08-15T04:54:02.778Z,90.54
2017-08-15T04:55:03.411Z,90.44
2017-08-15T04:56:04.050Z,90.64
2017-08-15T04:57:04.684Z,90.54
2017-08-15T04:58:05.318Z,90.83
2017-08-15T04:59:05.955Z,90.73
2017-08-15T05:00:06.595Z,90.73
2017-08-15T05:01:07.432Z,90.83
2017-08-15T05:02:08.065Z,90.73
2017-08-15T05:03:08.701Z,90.83
2017-08-15T05:04:09.338Z,90.54
2017-08-15T05:05:09.975Z,90.73
2017-08-15T05:06:10.613Z,90.54
2017-08-15T05:07:11.251Z,90.83
2017-08-15T05:08:11.887Z,90.64
2017-08-15T05:09:12.725Z,90.54
2017-08-15T05:10:13.369Z,90.73
2017-08-15T05:11:14.003Z,90.83
2017-08-15T05:12:14.633Z,90.83
2017-08-15T05:13:15.271Z,90.64
2017-08-15T05:14:15.911Z,90.64
2017-08-15T05:15:16.547Z,90.64
2017-08-15T05:16:17.180Z,90.54
2017-08-15T05:17:17.815Z,90.34
2017-08-15T05:18:18.656Z,90.83
2017-08-15T05:19:19.288Z,91.02
2017-08-15T05:20:19.922Z,91.02
2017-08-15T05:21:20.557Z,90.73
2017-08-15T05:22:21.193Z,90.73
2017-08-15T05:23:21.826Z,90.44
2017-08-15T05:24:22.467Z,90.83
2017-08-15T05:25:23.102Z,90.54
2017-08-15T05:26:23.944Z,90.34
2017-08-15T05:27:24.580Z,90.16
2017-08-15T05:28:25.219Z,91.02
2017-08-15T05:29:25.860Z,90.54
2017-08-15T05:30:26.488Z,90.54
2017-08-15T05:31:27.123Z,90.73
2017-08-15T05:32:27.760Z,90.54
2017-08-15T05:33:28.396Z,90.73
2017-08-15T05:34:29.381Z,90.64
2017-08-15T05:35:30.014Z,90.64
2017-08-15T05:36:30.651Z,90.64
2017-08-15T05:37:31.284Z,91.02
2017-08-15T05:38:31.918Z,90.64
2017-08-15T05:39:32.569Z,91.31
2017-08-15T05:40:33.196Z,90.64
2017-08-15T05:41:33.827Z,91.31
2017-08-15T05:42:34.612Z,91.31
2017-08-15T05:43:35.246Z,90.64
2017-08-15T05:44:35.937Z,90.92
2017-08-15T05:45:36.568Z,90.64
2017-08-15T05:46:37.203Z,91.12
2017-08-15T05:47:37.837Z,90.64
2017-08-15T05:48:38.472Z,90.44
2017-08-15T05:49:39.116Z,90.54
2017-08-15T05:50:39.759Z,90.54
2017-08-15T05:51:40.742Z,91.02
2017-08-15T05:52:41.372Z,90.54
2017-08-15T05:53:42.013Z,90.73
2017-08-15T05:54:42.647Z,90.16
2017-08-15T05:55:43.281Z,89.96
2017-08-15T05:56:43.921Z,90.25
2017-08-15T05:57:44.561Z,90.16
2017-08-15T05:58:45.195Z,90.44
2017-08-15T05:59:45.977Z,90.73
2017-08-15T06:00:46.618Z,90.16
2017-08-15T06:01:47.250Z,90.83
2017-08-15T06:02:47.885Z,90.64
2017-08-15T06:03:48.574Z,90.83
2017-08-15T06:04:49.210Z,90.25
2017-08-15T06:05:49.847Z,90.64
2017-08-15T06:06:50.480Z,90.34
2017-08-15T06:07:51.315Z,90.64
2017-08-15T06:08:51.959Z,90.83
2017-08-15T06:09:52.596Z,90.92
2017-08-15T06:10:53.236Z,90.64
2017-08-15T06:11:53.925Z,91.31
2017-08-15T06:12:54.555Z,90.69
2017-08-15T06:13:55.190Z,91.50
2017-08-15T06:14:55.825Z,91.36
2017-08-15T06:15:56.713Z,91.41
2017-08-15T06:16:57.347Z,91.46
2017-08-15T06:17:57.980Z,91.50
2017-08-15T06:18:58.619Z,91.41
2017-08-15T06:19:59.255Z,91.46
2017-08-15T06:20:59.886Z,91.41
2017-08-15T06:22:00.530Z,91.31
2017-08-15T06:23:01.155Z,91.36
2017-08-15T06:24:01.995Z,91.21
2017-08-15T06:25:02.628Z,91.36
2017-08-15T06:26:03.262Z,91.89
2017-08-15T06:27:03.897Z,91.65
2017-08-15T06:28:04.533Z,91.21
2017-08-15T06:29:05.173Z,91.41
2017-08-15T06:30:05.758Z,91.55
2017-08-15T06:31:06.395Z,91.36
2017-08-15T06:32:07.025Z,91.27
2017-08-15T06:33:07.809Z,91.50
2017-08-15T06:34:08.447Z,91.12
2017-08-15T06:35:09.080Z,90.78
2017-08-15T06:36:09.714Z,91.27
2017-08-15T06:37:10.353Z,90.73
2017-08-15T06:38:10.984Z,90.92
2017-08-15T06:39:13.718Z,90.83
2017-08-15T06:40:14.351Z,90.64
2017-08-15T06:41:15.191Z,90.83
2017-08-15T06:42:15.832Z,90.83
2017-08-15T06:43:16.522Z,90.54
2017-08-15T06:44:17.159Z,90.50
2017-08-15T06:45:17.792Z,90.59
2017-08-15T06:46:18.425Z,91.21
2017-08-15T06:47:19.113Z,91.17
2017-08-15T06:48:19.753Z,91.12
2017-08-15T06:49:20.585Z,91.31
2017-08-15T06:50:21.227Z,90.54
2017-08-15T06:51:21.862Z,90.73
2017-08-15T06:52:22.496Z,91.21
2017-08-15T06:53:23.131Z,91.31
2017-08-15T06:54:23.769Z,90.97
2017-08-15T06:55:24.406Z,91.46
2017-08-15T06:56:25.044Z,91.27
2017-08-15T06:57:25.825Z,91.41
2017-08-15T06:58:26.459Z,91.41
2017-08-15T06:59:27.102Z,91.17
2017-08-15T07:00:27.732Z,91.02
2017-08-15T07:01:28.367Z,91.21
2017-08-15T07:02:29.009Z,90.92
2017-08-15T07:03:29.642Z,90.73
2017-08-15T07:04:30.277Z,90.83
2017-08-15T07:05:30.963Z,90.83
2017-08-15T07:06:31.846Z,90.83
2017-08-15T07:07:32.482Z,90.54
2017-08-15T07:08:33.116Z,90.92
2017-08-15T07:09:33.756Z,90.97
2017-08-15T07:10:34.388Z,91.21
2017-08-15T07:11:35.021Z,90.69
2017-08-15T07:12:35.654Z,91.21
2017-08-15T07:13:36.300Z,91.17
2017-08-15T07:14:37.146Z,91.65
2017-08-15T07:15:37.774Z,91.41
2017-08-15T07:16:38.415Z,91.21
2017-08-15T07:17:39.045Z,91.41
2017-08-15T07:18:39.676Z,90.69
2017-08-15T07:19:40.317Z,91.69
2017-08-15T07:20:40.955Z,90.73
2017-08-15T07:21:41.592Z,91.69
2017-08-15T07:22:42.372Z,91.17
2017-08-15T07:23:43.013Z,91.31
2017-08-15T07:24:43.649Z,91.02
2017-08-15T07:25:44.280Z,91.50
2017-08-15T07:26:44.913Z,91.36
2017-08-15T07:27:45.549Z,91.17
2017-08-15T07:28:46.182Z,91.36
2017-08-15T07:29:46.818Z,91.36
2017-08-15T07:30:47.662Z,91.50
2017-08-15T07:31:48.289Z,91.46
2017-08-15T07:32:48.929Z,91.17
2017-08-15T07:33:49.568Z,91.17
2017-08-15T07:34:50.196Z,91.50
2017-08-15T07:35:50.843Z,91.65
2017-08-15T07:36:51.480Z,91.65
2017-08-15T07:37:52.108Z,91.36
2017-08-15T07:38:52.892Z,91.21
2017-08-15T07:39:53.533Z,91.41
2017-08-15T07:40:54.218Z,91.41
2017-08-15T07:41:54.850Z,91.12
2017-08-15T07:42:55.508Z,90.83
2017-08-15T07:43:56.119Z,90.73
2017-08-15T07:44:56.760Z,90.92
2017-08-15T07:45:57.392Z,90.83
2017-08-15T07:46:58.029Z,90.83
2017-08-15T07:47:58.870Z,90.64
2017-08-15T07:48:59.505Z,90.34
2017-08-15T07:50:00.141Z,90.44
2017-08-15T07:51:00.779Z,90.83
2017-08-15T07:52:01.413Z,90.34
2017-08-15T07:53:02.048Z,90.25
2017-08-15T07:54:02.684Z,90.73
2017-08-15T07:55:03.318Z,90.73
2017-08-15T07:56:04.101Z,90.54
2017-08-15T07:57:04.737Z,90.54
2017-08-15T07:58:05.376Z,90.64
2017-08-15T07:59:06.010Z,90.44
2017-08-15T08:00:06.645Z,90.54
2017-08-15T08:01:07.296Z,90.64
2017-08-15T08:02:07.921Z,90.83
2017-08-15T08:03:08.552Z,90.44
2017-08-15T08:04:09.386Z,90.73
2017-08-15T08:05:10.021Z,90.64
2017-08-15T08:06:10.654Z,90.54
2017-08-15T08:07:11.297Z,90.83
2017-08-15T08:08:11.929Z,90.64
2017-08-15T08:09:12.563Z,90.83
2017-08-15T08:10:13.199Z,90.83
2017-08-15T08:11:13.834Z,90.06
2017-08-15T08:12:14.623Z,90.64
2017-08-15T08:13:15.256Z,90.54
2017-08-15T08:14:15.888Z,90.64
2017-08-15T08:15:16.528Z,90.83
2017-08-15T08:16:17.166Z,90.92
2017-08-15T08:17:17.797Z,90.73
2017-08-15T08:18:18.431Z,90.73
2017-08-15T08:19:19.079Z,91.60
2017-08-15T08:20:19.715Z,91.60
2017-08-15T08:21:20.551Z,91.50
2017-08-15T08:22:21.188Z,91.41
2017-08-15T08:23:21.822Z,91.02
2017-08-15T08:24:22.454Z,91.41
2017-08-15T08:25:23.087Z,91.41
2017-08-15T08:26:23.733Z,91.31
2017-08-15T08:27:24.365Z,90.64
2017-08-15T08:28:25.002Z,91.50
2017-08-15T08:29:25.832Z,91.50
2017-08-15T08:30:26.476Z,90.83
2017-08-15T08:31:27.111Z,91.69
2017-08-15T08:32:27.804Z,91.60
2017-08-15T08:33:28.434Z,91.12
2017-08-15T08:34:29.069Z,90.92
2017-08-15T08:35:29.705Z,90.64
2017-08-15T08:36:30.340Z,90.44
2017-08-15T08:37:31.173Z,90.73
2017-08-15T08:38:31.814Z,90.64
2017-08-15T08:39:32.495Z,90.92
2017-08-15T08:40:33.134Z,90.64
2017-08-15T08:41:33.770Z,90.64
2017-08-15T08:42:34.407Z,91.21
2017-08-15T08:43:35.036Z,91.60
2017-08-15T08:44:35.681Z,91.21
2017-08-15T08:45:36.561Z,91.50
2017-08-15T08:46:37.202Z,90.54
2017-08-15T08:47:37.833Z,91.50
2017-08-15T08:48:38.469Z,91.41
2017-08-15T08:49:39.103Z,91.31
2017-08-15T08:50:39.743Z,91.50
2017-08-15T08:51:40.395Z,91.02
2017-08-15T08:52:41.012Z,91.21
2017-08-15T08:53:41.845Z,90.64
2017-08-15T08:54:42.485Z,91.02
2017-08-15T08:55:43.119Z,90.54
2017-08-15T08:56:43.754Z,91.21
2017-08-15T08:57:44.389Z,90.44
2017-08-15T08:58:45.028Z,90.54
2017-08-15T08:59:45.665Z,90.83
2017-08-15T09:00:46.299Z,90.73
2017-08-15T09:01:46.931Z,90.92
2017-08-15T09:02:47.771Z,90.25
2017-08-15T09:03:48.410Z,90.54
2017-08-15T09:04:49.039Z,90.54
2017-08-15T09:05:49.680Z,90.73
2017-08-15T09:06:50.316Z,90.54
2017-08-15T09:07:50.949Z,90.54
2017-08-15T09:08:51.582Z,90.54
2017-08-15T09:09:52.223Z,90.54
2017-08-15T09:10:53.157Z,90.64
2017-08-15T09:11:53.793Z,90.64
2017-08-15T09:12:54.432Z,90.73
2017-08-15T09:13:55.065Z,90.83
2017-08-15T09:14:55.706Z,90.83
2017-08-15T09:15:56.337Z,90.73
2017-08-15T09:16:56.972Z,90.83
2017-08-15T09:17:57.607Z,90.73
2017-08-15T09:18:58.440Z,90.73
2017-08-15T09:19:59.086Z,90.44
2017-08-15T09:20:59.728Z,90.73
2017-08-15T09:22:00.364Z,90.54
2017-08-15T09:23:00.996Z,90.54
2017-08-15T09:24:01.633Z,90.92
2017-08-15T09:25:02.272Z,90.83
2017-08-15T09:26:02.907Z,90.73
2017-08-15T09:27:03.695Z,90.54
2017-08-15T09:28:04.332Z,90.64
2017-08-15T09:29:04.966Z,90.54
2017-08-15T09:30:05.599Z,90.64
2017-08-15T09:31:06.237Z,90.83
2017-08-15T09:32:06.886Z,90.16
2017-08-15T09:33:07.520Z,90.54
2017-08-15T09:34:08.155Z,90.06
2017-08-15T09:35:08.787Z,90.16
2017-08-15T09:36:09.621Z,90.06
2017-08-15T09:37:10.261Z,90.06
2017-08-15T09:38:10.896Z,90.25
2017-08-15T09:39:11.532Z,90.44
2017-08-15T09:40:12.168Z,90.25
2017-08-15T09:41:12.800Z,90.34
2017-08-15T09:42:13.434Z,89.96
2017-08-15T09:43:14.068Z,90.06
2017-08-15T09:44:15.008Z,90.16
2017-08-15T09:45:15.663Z,90.83
2017-08-15T09:46:16.283Z,90.34
2017-08-15T09:47:16.919Z,90.83
2017-08-15T09:48:17.552Z,90.06
2017-08-15T09:49:18.194Z,90.16
2017-08-15T09:50:18.821Z,89.96
2017-08-15T09:51:19.455Z,90.16
2017-08-15T09:52:20.248Z,89.86
2017-08-15T09:53:20.882Z,90.25
2017-08-15T09:54:21.565Z,90.44
2017-08-15T09:55:22.205Z,89.67
2017-08-15T09:56:22.891Z,90.06
2017-08-15T09:57:23.523Z,90.06
2017-08-15T09:58:24.157Z,89.96
2017-08-15T09:59:24.795Z,90.25
2017-08-15T10:00:25.532Z,89.58
2017-08-15T10:01:26.173Z,89.29
2017-08-15T10:02:26.803Z,89.19
2017-08-15T10:03:27.448Z,89.77
2017-08-15T10:04:28.072Z,89.33
2017-08-15T10:05:28.707Z,89.48
2017-08-15T10:06:29.342Z,89.19
2017-08-15T10:07:29.981Z,89.58
2017-08-15T10:08:30.770Z,89.48
2017-08-15T10:09:31.405Z,89.39
2017-08-15T10:10:32.037Z,89.48
2017-08-15T10:11:32.671Z,89.72
2017-08-15T10:12:33.310Z,89.72
2017-08-15T10:13:33.954Z,89.86
2017-08-15T10:14:34.581Z,89.77
2017-08-15T10:15:35.215Z,89.67
2017-08-15T10:16:35.852Z,89.72
2017-08-15T10:17:36.693Z,89.91
2017-08-15T10:18:37.330Z,89.14
2017-08-15T10:19:37.958Z,89.14
2017-08-15T10:20:38.599Z,89.33
2017-08-15T10:21:39.236Z,89.33
2017-08-15T10:22:39.867Z,89.14
2017-08-15T10:23:40.500Z,89.04
2017-08-15T10:24:41.135Z,89.53
2017-08-15T10:25:41.968Z,89.33
2017-08-15T10:26:42.616Z,89.23
2017-08-15T10:27:43.250Z,89.53
2017-08-15T10:28:43.879Z,89.14
2017-08-15T10:29:44.519Z,89.33
2017-08-15T10:30:45.159Z,89.23
2017-08-15T10:31:45.798Z,88.65
2017-08-15T10:32:46.428Z,88.65
2017-08-15T10:33:47.361Z,89.04
2017-08-15T10:34:48.004Z,88.85
2017-08-15T10:35:48.648Z,88.46
2017-08-15T10:36:49.283Z,88.17
2017-08-15T10:37:49.920Z,88.22
2017-08-15T10:38:50.558Z,88.17
2017-08-15T10:39:51.193Z,88.22
2017-08-15T10:40:51.829Z,88.12
2017-08-15T10:41:52.616Z,88.41
2017-08-15T10:42:53.252Z,88.08
2017-08-15T10:43:53.886Z,88.12
2017-08-15T10:44:54.525Z,88.12
2017-08-15T10:45:55.160Z,87.93
2017-08-15T10:46:55.801Z,88.22
2017-08-15T10:47:56.430Z,88.02
2017-08-15T10:48:57.073Z,88.22
2017-08-15T10:49:57.718Z,88.12
2017-08-15T10:50:58.554Z,88.22
2017-08-15T10:51:59.184Z,88.31
2017-08-15T10:52:59.819Z,87.45
2017-08-15T10:54:00.460Z,87.35
2017-08-15T10:55:01.091Z,87.45
2017-08-15T10:56:01.728Z,87.45
2017-08-15T10:57:02.362Z,87.54
2017-08-15T10:58:02.999Z,87.16
2017-08-15T10:59:07.184Z,87.45
2017-08-15T11:00:07.819Z,87.26
2017-08-15T11:01:08.454Z,87.16
2017-08-15T11:02:09.090Z,87.35
2017-08-15T11:03:09.723Z,87.45
2017-08-15T11:04:10.364Z,86.77
2017-08-15T11:05:10.997Z,86.87
2017-08-15T11:06:11.633Z,86.77
2017-08-15T11:07:12.468Z,86.48
2017-08-15T11:08:13.104Z,86.87
2017-08-15T11:09:13.744Z,86.19
2017-08-15T11:10:14.382Z,86.00
2017-08-15T11:11:15.014Z,86.00
2017-08-15T11:12:15.658Z,85.81
2017-08-15T11:13:16.299Z,86.10
2017-08-15T11:14:16.934Z,85.91
2017-08-15T11:15:17.765Z,85.81
2017-08-15T11:16:18.401Z,86.00
2017-08-15T11:17:19.039Z,86.00
2017-08-15T11:18:19.673Z,86.29
2017-08-15T11:19:20.308Z,86.29
2017-08-15T11:20:21.010Z,86.29
2017-08-15T11:21:21.641Z,86.10
2017-08-15T11:22:22.282Z,86.10
2017-08-15T11:23:23.064Z,86.10
2017-08-15T11:24:23.706Z,85.91
2017-08-15T11:25:24.346Z,86.19
2017-08-15T11:26:24.980Z,85.91
2017-08-15T11:27:25.615Z,86.19
2017-08-15T11:28:26.256Z,86.00
2017-08-15T11:29:26.886Z,86.10
2017-08-15T11:30:27.526Z,85.81
2017-08-15T11:31:28.162Z,86.19
2017-08-15T11:32:29.049Z,85.71
2017-08-15T11:33:29.684Z,85.71
2017-08-15T11:34:30.327Z,85.61
2017-08-15T11:35:30.959Z,85.81
2017-08-15T11:36:31.598Z,85.81
2017-08-15T11:37:32.228Z,85.91
2017-08-15T11:38:32.871Z,85.91
2017-08-15T11:39:33.503Z,86.00
2017-08-15T11:40:34.499Z,85.81
2017-08-15T11:41:35.141Z,85.81
2017-08-15T11:42:35.777Z,85.94
2017-08-15T11:43:36.416Z,86.04
2017-08-15T11:44:37.051Z,86.10
2017-08-15T11:45:37.691Z,85.66
2017-08-15T11:46:38.325Z,85.61
2017-08-15T11:47:38.961Z,85.85
2017-08-15T11:48:39.747Z,85.56
2017-08-15T11:49:40.392Z,85.75
2017-08-15T11:50:41.029Z,85.66
2017-08-15T11:51:41.667Z,85.85
2017-08-15T11:52:42.301Z,85.75
2017-08-15T11:53:42.937Z,85.75
2017-08-15T11:54:43.575Z,85.56
2017-08-15T11:55:44.218Z,85.85
2017-08-15T11:56:45.050Z,85.94
2017-08-15T11:57:45.690Z,85.46
2017-08-15T11:58:46.384Z,85.56
2017-08-15T11:59:47.025Z,85.94
2017-08-15T12:00:47.660Z,85.94
2017-08-15T12:01:48.293Z,85.94
2017-08-15T12:02:48.933Z,85.75
2017-08-15T12:03:49.568Z,85.66
2017-08-15T12:04:50.453Z,85.27
2017-08-15T12:05:51.093Z,84.98
2017-08-15T12:06:51.738Z,85.17
2017-08-15T12:07:52.376Z,85.46
2017-08-15T12:08:53.007Z,85.27
2017-08-15T12:09:53.649Z,85.27
2017-08-15T12:10:54.281Z,84.89
2017-08-15T12:11:54.926Z,85.56
2017-08-15T12:12:55.561Z,85.37
2017-08-15T12:13:56.499Z,85.46
2017-08-15T12:14:57.139Z,84.89
2017-08-15T12:15:57.772Z,85.08
2017-08-15T12:16:58.410Z,84.89
2017-08-15T12:17:59.045Z,85.17
2017-08-15T12:18:59.682Z,85.08
2017-08-15T12:20:00.320Z,84.89
2017-08-15T12:21:00.956Z,84.79
2017-08-15T12:22:01.742Z,85.08
2017-08-15T12:23:02.386Z,85.08
2017-08-15T12:24:03.020Z,85.08
2017-08-15T12:25:03.667Z,84.79
2017-08-15T12:26:04.302Z,84.69
2017-08-15T12:27:04.948Z,84.69
2017-08-15T12:28:05.586Z,84.69
2017-08-15T12:29:06.224Z,84.89
2017-08-15T12:30:07.057Z,84.79
2017-08-15T12:31:07.693Z,84.79
2017-08-15T12:32:08.339Z,84.69
2017-08-15T12:33:08.968Z,84.69
2017-08-15T12:34:09.610Z,84.31
2017-08-15T12:35:10.243Z,84.11
2017-08-15T12:36:10.881Z,84.41
2017-08-15T12:37:11.523Z,84.31
2017-08-15T12:38:12.413Z,84.31
2017-08-15T12:39:13.052Z,84.41
2017-08-15T12:40:13.691Z,84.31
2017-08-15T12:41:14.331Z,84.89
2017-08-15T12:42:14.963Z,84.59
2017-08-15T12:43:15.600Z,84.69
2017-08-15T12:44:16.243Z,84.79
2017-08-15T12:45:16.876Z,84.59
2017-08-15T12:46:17.518Z,84.50
2017-08-15T12:47:18.302Z,84.41
2017-08-15T12:48:18.938Z,84.31
2017-08-15T12:49:19.578Z,84.21
2017-08-15T12:50:20.220Z,84.41
2017-08-15T12:51:20.851Z,84.01
2017-08-15T12:52:21.493Z,83.92
2017-08-15T12:53:22.129Z,84.54
2017-08-15T12:54:22.772Z,84.21
2017-08-15T12:55:23.603Z,83.92
2017-08-15T12:56:24.241Z,83.73
2017-08-15T12:57:24.881Z,84.41
2017-08-15T12:58:25.517Z,84.01
2017-08-15T12:59:28.554Z,84.01
2017-08-15T13:00:29.190Z,84.31
2017-08-15T13:01:29.827Z,83.77